Time;durP1;ratioP1;P1;durP2;ratioP2;P2;SDS_P1;SDS_P2;PMS_P1;PMS_P2;Temp;Humidity;BMP_temperature;BMP_pressure;BME280_temperature;BME280_humidity;BME280_pressure;Samples;Min_cycle;Max_cycle;Signal;HPM_P1;HPM_P2
2023/07/05 00:01:18;;;;;;;6.68;5.18;;;;;;;;;;5067909;28;41642;-66
2023/07/05 00:03:46;;;;;;;12.60;6.22;;;;;;;;;;5054187;28;42424;-66
2023/07/05 00:06:14;;;;;;;10.00;6.07;;;;;;;;;;5048749;28;40224;-66
2023/07/05 00:08:42;;;;;;;12.88;5.88;;;;;;;;;;5060669;28;42040;-66
2023/07/05 00:11:11;;;;;;;7.57;5.85;;;;;;;;;;5067733;28;42175;-66
2023/07/05 00:13:39;;;;;;;8.38;5.45;;;;;;;;;;5066362;28;40057;-66
2023/07/05 00:16:08;;;;;;;8.63;5.65;;;;;;;;;;5067250;28;41944;-67
2023/07/05 00:18:36;;;;;;;9.00;5.88;;;;;;;;;;5065242;28;40532;-66
2023/07/05 00:21:04;;;;;;;8.73;6.05;;;;;;;;;;5067040;28;43114;-67
2023/07/05 00:23:33;;;;;;;7.82;6.03;;;;;;;;;;5066527;28;42135;-66
2023/07/05 00:26:02;;;;;;;8.50;5.60;;;;;;;;;;5068111;28;40345;-67
2023/07/05 00:28:33;;;;;;;8.13;5.70;;;;;;;;;;5081048;28;41247;-67
2023/07/05 00:31:01;;;;;;;7.40;5.30;;;;;;;;;;5087064;28;42221;-67
2023/07/05 00:33:31;;;;;;;7.45;5.70;;;;;;;;;;5087792;28;40027;-67
2023/07/05 00:35:59;;;;;;;7.50;5.88;;;;;;;;;;5089129;28;42466;-68
2023/07/05 00:38:28;;;;;;;9.20;6.43;;;;;;;;;;5088854;28;42234;-67
2023/07/05 00:40:56;;;;;;;8.88;5.95;;;;;;;;;;5071164;28;41686;-67
2023/07/05 00:43:24;;;;;;;9.43;5.90;;;;;;;;;;5054069;28;41640;-67
2023/07/05 00:45:56;;;;;;;8.85;6.35;;;;;;;;;;5047690;28;40160;-67
2023/07/05 00:48:26;;;;;;;9.00;5.93;;;;;;;;;;5093075;27;40202;-66
2023/07/05 00:50:55;;;;;;;8.90;5.75;;;;;;;;;;5063892;28;43955;-67
2023/07/05 00:53:24;;;;;;;7.07;5.65;;;;;;;;;;5047632;28;39762;-67
2023/07/05 00:55:53;;;;;;;7.80;5.68;;;;;;;;;;5080746;28;40294;-67
2023/07/05 00:58:22;;;;;;;7.78;6.18;;;;;;;;;;5059444;28;43336;-67
2023/07/05 01:00:50;;;;;;;9.52;6.47;;;;;;;;;;5068111;28;38744;-67
2023/07/05 01:03:20;;;;;;;6.95;5.63;;;;;;;;;;5067829;28;43156;-67
2023/07/05 01:05:50;;;;;;;10.95;6.93;;;;;;;;;;5069074;28;41348;-67
2023/07/05 01:08:18;;;;;;;8.25;6.00;;;;;;;;;;5067957;28;42832;-67
2023/07/05 01:10:48;;;;;;;8.73;6.22;;;;;;;;;;5068363;28;43108;-67
2023/07/05 01:13:17;;;;;;;9.25;6.63;;;;;;;;;;5068660;28;42896;-67
2023/07/05 01:15:47;;;;;;;9.95;6.35;;;;;;;;;;5068836;28;41447;-67
2023/07/05 01:18:17;;;;;;;9.10;6.18;;;;;;;;;;5068106;28;43288;-67
2023/07/05 01:20:48;;;;;;;11.48;6.47;;;;;;;;;;5070434;28;40495;-67
2023/07/05 01:23:24;;;;;;;7.80;6.70;;;;;;;;;;5067290;28;40822;-67
2023/07/05 01:26:10;;;;;;;8.63;6.97;;;;;;;;;;5067232;28;40119;-67
2023/07/05 01:28:55;;;;;;;10.10;6.75;;;;;;;;;;5026966;28;40181;-67
2023/07/05 01:31:44;;;;;;;12.68;6.93;;;;;;;;;;5065921;28;40545;-67
2023/07/05 01:34:17;;;;;;;7.72;6.25;;;;;;;;;;5061769;28;38862;-67
2023/07/05 01:36:45;;;;;;;7.60;6.35;;;;;;;;;;5065794;28;41563;-67
2023/07/05 01:39:17;;;;;;;8.88;7.28;;;;;;;;;;5081149;28;42119;-67
2023/07/05 01:41:45;;;;;;;10.27;7.00;;;;;;;;;;5088837;28;40248;-67
2023/07/05 01:44:13;;;;;;;8.60;6.93;;;;;;;;;;5087674;28;40241;-66
2023/07/05 01:46:43;;;;;;;9.60;6.45;;;;;;;;;;5090182;28;40959;-67
2023/07/05 01:49:21;;;;;;;8.23;6.30;;;;;;;;;;5091480;28;42674;-67
2023/07/05 01:51:50;;;;;;;9.82;6.90;;;;;;;;;;5091343;28;41904;-67
2023/07/05 01:54:21;;;;;;;10.32;7.15;;;;;;;;;;5090863;28;40255;-67
2023/07/05 01:56:51;;;;;;;10.13;6.55;;;;;;;;;;5089366;28;41588;-67
2023/07/05 01:59:22;;;;;;;8.63;7.05;;;;;;;;;;5088156;28;40839;-66
2023/07/05 02:01:50;;;;;;;10.10;7.18;;;;;;;;;;5090630;28;38755;-66
2023/07/05 02:04:21;;;;;;;7.95;6.55;;;;;;;;;;5089718;28;40290;-67
2023/07/05 02:06:49;;;;;;;8.75;6.30;;;;;;;;;;5091450;28;43115;-67
2023/07/05 02:09:17;;;;;;;9.82;6.93;;;;;;;;;;5090695;28;42483;-67
2023/07/05 02:11:45;;;;;;;9.30;6.32;;;;;;;;;;5091799;28;42687;-67
2023/07/05 02:14:14;;;;;;;7.18;6.07;;;;;;;;;;5090966;28;40972;-67
2023/07/05 02:16:43;;;;;;;8.18;6.60;;;;;;;;;;5092270;28;41739;-67
2023/07/05 02:19:11;;;;;;;9.48;6.95;;;;;;;;;;5089799;28;40906;-67
2023/07/05 02:21:40;;;;;;;9.13;6.43;;;;;;;;;;5088871;28;41813;-67
2023/07/05 02:24:08;;;;;;;8.13;6.68;;;;;;;;;;5090611;28;41194;-67
2023/07/05 02:26:36;;;;;;;8.18;6.25;;;;;;;;;;5090905;28;42093;-67
2023/07/05 02:29:04;;;;;;;7.70;6.05;;;;;;;;;;5091060;28;39770;-66
2023/07/05 02:31:32;;;;;;;8.27;6.68;;;;;;;;;;5090650;28;42204;-67
2023/07/05 02:34:00;;;;;;;8.75;6.78;;;;;;;;;;5091801;28;40370;-66
2023/07/05 02:36:28;;;;;;;8.25;6.53;;;;;;;;;;5090130;28;41513;-66
2023/07/05 02:38:57;;;;;;;7.88;6.00;;;;;;;;;;5090240;28;41574;-67
2023/07/05 02:41:25;;;;;;;6.93;5.88;;;;;;;;;;5089860;28;40519;-66
2023/07/05 02:43:53;;;;;;;7.55;5.72;;;;;;;;;;5091387;28;42455;-67
2023/07/05 02:46:23;;;;;;;8.07;6.30;;;;;;;;;;5090885;28;42589;-66
2023/07/05 02:48:51;;;;;;;7.68;6.00;;;;;;;;;;5088737;28;40240;-67
2023/07/05 02:51:19;;;;;;;6.63;5.50;;;;;;;;;;5089420;28;40644;-67
2023/07/05 02:53:47;;;;;;;7.65;6.07;;;;;;;;;;5091424;28;39884;-67
2023/07/05 02:56:17;;;;;;;6.13;5.00;;;;;;;;;;5090497;28;41290;-67
2023/07/05 02:58:45;;;;;;;6.53;5.93;;;;;;;;;;5090377;28;42657;-67
2023/07/05 03:01:12;;;;;;;6.97;5.72;;;;;;;;;;5091345;28;41257;-67
2023/07/05 03:03:40;;;;;;;6.60;5.55;;;;;;;;;;5089651;28;42657;-67
2023/07/05 03:06:08;;;;;;;7.35;5.20;;;;;;;;;;5091167;28;41882;-67
2023/07/05 03:08:36;;;;;;;6.45;5.38;;;;;;;;;;5090181;28;40841;-67
2023/07/05 03:11:04;;;;;;;6.72;5.07;;;;;;;;;;5088916;28;40210;-67
2023/07/05 03:13:34;;;;;;;6.65;4.75;;;;;;;;;;5089541;28;40460;-67
2023/07/05 03:16:02;;;;;;;6.38;5.10;;;;;;;;;;5091100;28;41903;-67
2023/07/05 03:18:31;;;;;;;5.78;4.65;;;;;;;;;;5088764;28;42763;-67
2023/07/05 03:20:58;;;;;;;8.73;5.15;;;;;;;;;;5089218;28;39928;-67
2023/07/05 03:23:26;;;;;;;6.32;4.30;;;;;;;;;;5089441;28;41393;-67
2023/07/05 03:25:56;;;;;;;6.93;4.65;;;;;;;;;;5075240;28;41445;-67
2023/07/05 03:28:25;;;;;;;4.80;4.25;;;;;;;;;;5069926;28;39111;-67
2023/07/05 03:30:54;;;;;;;4.85;4.18;;;;;;;;;;5088582;28;41789;-67
2023/07/05 03:33:23;;;;;;;7.38;4.38;;;;;;;;;;5089114;28;40561;-67
2023/07/05 03:35:55;;;;;;;5.95;4.60;;;;;;;;;;5090541;28;42629;-67
2023/07/05 03:38:24;;;;;;;5.60;4.10;;;;;;;;;;5087640;28;41899;-67
2023/07/05 03:40:56;;;;;;;4.93;4.38;;;;;;;;;;5088895;28;38931;-67
2023/07/05 03:43:25;;;;;;;5.07;4.32;;;;;;;;;;5089630;28;41526;-67
2023/07/05 03:45:54;;;;;;;5.95;4.47;;;;;;;;;;5090013;28;42038;-67
2023/07/05 03:48:22;;;;;;;5.20;3.90;;;;;;;;;;5082470;28;41374;-66
2023/07/05 03:50:50;;;;;;;4.30;3.83;;;;;;;;;;5062165;28;41413;-67
2023/07/05 03:53:18;;;;;;;6.10;3.75;;;;;;;;;;5056966;28;42167;-67
2023/07/05 03:55:46;;;;;;;4.45;3.72;;;;;;;;;;5056444;28;40110;-67
2023/07/05 03:58:14;;;;;;;3.85;3.45;;;;;;;;;;5054337;28;42005;-67
2023/07/05 04:00:43;;;;;;;4.40;3.78;;;;;;;;;;5057332;28;40157;-67
2023/07/05 04:03:12;;;;;;;5.22;4.05;;;;;;;;;;5070013;28;41072;-67
2023/07/05 04:05:40;;;;;;;3.97;3.38;;;;;;;;;;5068449;28;42899;-67
2023/07/05 04:08:08;;;;;;;4.53;3.40;;;;;;;;;;5067300;28;39056;-67
2023/07/05 04:10:36;;;;;;;4.53;3.40;;;;;;;;;;5076732;28;41199;-67
2023/07/05 04:13:04;;;;;;;4.75;3.80;;;;;;;;;;5074023;28;43192;-67
2023/07/05 04:15:32;;;;;;;3.97;3.53;;;;;;;;;;5071496;28;40459;-67
2023/07/05 04:18:00;;;;;;;4.88;3.42;;;;;;;;;;5077773;28;41721;-67
2023/07/05 04:20:31;;;;;;;5.68;3.55;;;;;;;;;;5076394;28;41706;-67
2023/07/05 04:23:00;;;;;;;5.28;3.50;;;;;;;;;;5077130;28;42743;-66
2023/07/05 04:25:28;;;;;;;4.20;3.40;;;;;;;;;;5073145;28;40855;-67
2023/07/05 04:27:56;;;;;;;4.15;3.70;;;;;;;;;;5106663;27;40212;-66
2023/07/05 04:30:24;;;;;;;3.97;3.03;;;;;;;;;;5077220;28;39826;-66
2023/07/05 04:32:52;;;;;;;4.18;3.40;;;;;;;;;;5080151;28;42036;-66
2023/07/05 04:35:20;;;;;;;5.00;3.58;;;;;;;;;;5068602;28;40252;-67
2023/07/05 04:37:50;;;;;;;4.15;3.50;;;;;;;;;;5061010;27;41578;-67
2023/07/05 04:40:18;;;;;;;3.97;3.20;;;;;;;;;;5072132;28;41417;-67
2023/07/05 04:42:46;;;;;;;4.00;3.25;;;;;;;;;;5063900;28;42192;-66
2023/07/05 04:45:14;;;;;;;5.75;3.20;;;;;;;;;;5061736;28;42265;-66
2023/07/05 04:47:42;;;;;;;4.78;3.22;;;;;;;;;;5068339;28;40073;-66
2023/07/05 04:50:10;;;;;;;5.10;3.33;;;;;;;;;;5062227;28;42506;-67
2023/07/05 04:52:38;;;;;;;5.20;3.17;;;;;;;;;;5048461;28;42049;-67
2023/07/05 04:55:08;;;;;;;4.90;3.25;;;;;;;;;;5048251;28;41585;-67
2023/07/05 04:57:38;;;;;;;4.07;2.90;;;;;;;;;;5045430;28;41636;-67
2023/07/05 05:00:08;;;;;;;5.03;3.58;;;;;;;;;;5070063;28;43265;-67
2023/07/05 05:02:36;;;;;;;3.90;3.38;;;;;;;;;;5048564;28;39961;-67
2023/07/05 05:05:04;;;;;;;4.38;3.38;;;;;;;;;;5048326;28;41721;-67
2023/07/05 05:07:33;;;;;;;4.43;3.15;;;;;;;;;;5057310;28;40680;-67
2023/07/05 05:10:01;;;;;;;4.45;3.38;;;;;;;;;;5080227;28;40997;-67
2023/07/05 05:12:30;;;;;;;4.43;3.47;;;;;;;;;;5068424;28;42315;-66
2023/07/05 05:14:58;;;;;;;6.18;3.53;;;;;;;;;;5069166;28;40556;-68
2023/07/05 05:17:26;;;;;;;5.70;3.70;;;;;;;;;;5063571;28;41231;-67
2023/07/05 05:19:54;;;;;;;4.85;3.55;;;;;;;;;;5068918;28;43633;-66
2023/07/05 05:22:22;;;;;;;7.65;3.55;;;;;;;;;;5074985;28;40117;-66
2023/07/05 05:24:50;;;;;;;5.55;3.17;;;;;;;;;;5078184;28;41512;-65
2023/07/05 05:27:18;;;;;;;4.78;3.28;;;;;;;;;;5082919;28;40366;-66
2023/07/05 05:29:48;;;;;;;4.15;2.95;;;;;;;;;;5082005;28;41795;-67
2023/07/05 05:32:16;;;;;;;4.55;3.20;;;;;;;;;;5070810;28;42530;-66
2023/07/05 05:34:44;;;;;;;4.93;3.33;;;;;;;;;;5071912;28;41289;-66
2023/07/05 05:37:12;;;;;;;4.93;3.50;;;;;;;;;;5071265;28;41490;-66
2023/07/05 05:39:40;;;;;;;5.35;3.55;;;;;;;;;;5071125;28;42048;-66
2023/07/05 05:42:11;;;;;;;5.00;3.30;;;;;;;;;;5068650;28;40215;-65
2023/07/05 05:44:39;;;;;;;5.47;3.58;;;;;;;;;;5068070;28;41167;-65
2023/07/05 05:47:09;;;;;;;4.22;3.20;;;;;;;;;;5071761;28;41462;-65
2023/07/05 05:49:37;;;;;;;6.68;3.33;;;;;;;;;;5070889;28;42359;-66
2023/07/05 05:52:05;;;;;;;5.43;3.22;;;;;;;;;;5068339;28;42109;-65
2023/07/05 05:54:35;;;;;;;5.68;3.10;;;;;;;;;;5063499;28;41513;-66
2023/07/05 05:57:03;;;;;;;4.70;3.35;;;;;;;;;;5067996;28;42318;-66
2023/07/05 05:59:31;;;;;;;7.03;3.50;;;;;;;;;;5068491;28;41975;-65
2023/07/05 06:01:59;;;;;;;7.43;3.40;;;;;;;;;;5072134;28;41182;-66
2023/07/05 06:04:28;;;;;;;7.45;3.50;;;;;;;;;;5071177;28;41620;-66
2023/07/05 06:06:56;;;;;;;7.00;3.25;;;;;;;;;;5070186;28;40897;-66
2023/07/05 06:09:24;;;;;;;6.78;3.45;;;;;;;;;;5080741;28;41626;-66
2023/07/05 06:11:52;;;;;;;6.97;3.60;;;;;;;;;;5092175;28;42633;-66
2023/07/05 06:14:20;;;;;;;5.22;3.10;;;;;;;;;;5090623;28;40358;-67
2023/07/05 06:16:48;;;;;;;6.65;3.72;;;;;;;;;;5092048;28;41755;-66
2023/07/05 06:19:16;;;;;;;5.53;3.78;;;;;;;;;;5081794;28;42885;-65
2023/07/05 06:21:46;;;;;;;9.40;3.60;;;;;;;;;;5071572;28;41304;-66
2023/07/05 06:24:14;;;;;;;5.28;2.95;;;;;;;;;;5071172;28;42002;-66
2023/07/05 06:26:42;;;;;;;5.95;3.25;;;;;;;;;;5069281;28;43328;-66
2023/07/05 06:29:10;;;;;;;9.70;3.58;;;;;;;;;;5078160;28;41324;-66
2023/07/05 06:31:38;;;;;;;5.93;3.55;;;;;;;;;;5078304;28;43066;-65
2023/07/05 06:34:06;;;;;;;6.97;3.15;;;;;;;;;;5067802;28;40035;-66
2023/07/05 06:36:33;;;;;;;8.95;3.65;;;;;;;;;;5070221;28;42155;-66
2023/07/05 06:39:03;;;;;;;6.88;3.38;;;;;;;;;;5071302;28;43082;-66
2023/07/05 06:41:31;;;;;;;8.88;3.15;;;;;;;;;;5069925;28;41358;-65
2023/07/05 06:43:59;;;;;;;7.32;3.30;;;;;;;;;;5071434;28;41505;-65
2023/07/05 06:46:27;;;;;;;7.15;3.80;;;;;;;;;;5069433;28;42080;-66
2023/07/05 06:48:55;;;;;;;6.50;3.45;;;;;;;;;;5069859;28;41262;-66
2023/07/05 06:51:24;;;;;;;7.90;3.70;;;;;;;;;;5065390;28;42002;-65
2023/07/05 06:53:52;;;;;;;7.50;3.50;;;;;;;;;;5070236;28;40276;-67
2023/07/05 06:56:21;;;;;;;8.50;3.30;;;;;;;;;;5067435;28;42212;-67
2023/07/05 06:58:49;;;;;;;11.40;3.58;;;;;;;;;;5070056;28;42346;-66
2023/07/05 07:01:17;;;;;;;6.45;3.30;;;;;;;;;;5066489;28;40029;-66
2023/07/05 07:03:45;;;;;;;11.13;3.65;;;;;;;;;;5066637;28;41655;-68
2023/07/05 07:06:13;;;;;;;5.03;3.22;;;;;;;;;;5068882;28;42199;-67
2023/07/05 07:08:41;;;;;;;6.63;3.53;;;;;;;;;;5069723;28;40440;-67
2023/07/05 07:11:10;;;;;;;8.95;2.83;;;;;;;;;;5070483;28;41877;-68
2023/07/05 07:13:39;;;;;;;6.03;3.38;;;;;;;;;;5069444;28;41984;-67
2023/07/05 07:16:08;;;;;;;10.95;3.10;;;;;;;;;;5070194;28;42632;-66
2023/07/05 07:18:37;;;;;;;7.45;3.25;;;;;;;;;;5068440;28;42013;-67
2023/07/05 07:21:06;;;;;;;8.60;3.00;;;;;;;;;;5070790;28;40426;-66
2023/07/05 07:23:34;;;;;;;8.60;2.92;;;;;;;;;;5068492;28;42730;-66
2023/07/05 07:26:02;;;;;;;5.22;2.88;;;;;;;;;;5069590;28;41668;-66
2023/07/05 07:28:30;;;;;;;3.80;2.55;;;;;;;;;;5068975;28;41256;-65
2023/07/05 07:30:59;;;;;;;6.53;3.00;;;;;;;;;;5084438;28;41147;-66
2023/07/05 07:33:27;;;;;;;6.78;2.47;;;;;;;;;;5069845;28;42634;-66
2023/07/05 07:35:55;;;;;;;5.05;2.85;;;;;;;;;;5070059;28;40984;-66
2023/07/05 07:38:23;;;;;;;4.20;2.80;;;;;;;;;;5069646;28;41996;-66
2023/07/05 07:40:51;;;;;;;8.10;2.75;;;;;;;;;;5065214;28;40411;-66
2023/07/05 07:43:20;;;;;;;7.72;2.53;;;;;;;;;;5063875;28;42251;-66
2023/07/05 07:45:48;;;;;;;7.57;2.70;;;;;;;;;;5056945;28;41972;-65
2023/07/05 07:48:17;;;;;;;5.55;2.58;;;;;;;;;;5067567;28;41009;-67
2023/07/05 07:50:48;;;;;;;7.40;2.40;;;;;;;;;;5068604;28;41638;-66
2023/07/05 07:53:16;;;;;;;9.35;2.63;;;;;;;;;;5068478;28;43032;-66
2023/07/05 07:55:44;;;;;;;5.40;2.80;;;;;;;;;;5075454;28;40294;-67
2023/07/05 07:58:12;;;;;;;4.50;2.47;;;;;;;;;;5068515;28;42053;-67
2023/07/05 08:00:40;;;;;;;5.25;2.63;;;;;;;;;;5069661;28;40872;-66
2023/07/05 08:03:08;;;;;;;7.18;2.65;;;;;;;;;;5069103;28;41644;-65
2023/07/05 08:05:41;;;;;;;3.83;2.38;;;;;;;;;;5065809;28;42968;-68
2023/07/05 08:08:09;;;;;;;4.50;1.83;;;;;;;;;;5068852;28;40397;-67
2023/07/05 08:10:39;;;;;;;4.13;2.47;;;;;;;;;;5085342;28;41502;-67
2023/07/05 08:13:07;;;;;;;2.65;2.03;;;;;;;;;;5069345;28;42576;-66
2023/07/05 08:15:35;;;;;;;2.78;1.83;;;;;;;;;;5053454;28;40930;-67
2023/07/05 08:18:03;;;;;;;3.80;1.90;;;;;;;;;;5066543;28;41652;-67
2023/07/05 08:20:33;;;;;;;2.72;1.83;;;;;;;;;;5075687;28;41105;-65
2023/07/05 08:23:02;;;;;;;3.15;1.75;;;;;;;;;;5075798;28;40083;-66
2023/07/05 08:25:33;;;;;;;5.43;2.10;;;;;;;;;;5076369;28;42884;-67
2023/07/05 08:28:02;;;;;;;7.30;1.92;;;;;;;;;;5064184;28;40128;-69
2023/07/05 08:30:30;;;;;;;9.30;2.20;;;;;;;;;;5041099;28;41685;-73
2023/07/05 08:32:58;;;;;;;7.13;2.03;;;;;;;;;;5064201;28;42635;-70
2023/07/05 08:35:26;;;;;;;13.23;1.98;;;;;;;;;;5065157;28;40800;-67
2023/07/05 08:37:54;;;;;;;19.67;2.70;;;;;;;;;;5067064;28;41723;-68
2023/07/05 08:40:24;;;;;;;15.38;3.88;;;;;;;;;;5070715;28;43057;-68
2023/07/05 08:42:54;;;;;;;11.27;2.75;;;;;;;;;;5059207;28;41791;-68
2023/07/05 08:45:23;;;;;;;8.93;1.85;;;;;;;;;;5058969;28;42732;-68
2023/07/05 08:47:52;;;;;;;3.47;1.80;;;;;;;;;;5059890;28;40636;-68
2023/07/05 08:50:23;;;;;;;8.23;2.03;;;;;;;;;;5067445;28;41575;-69
2023/07/05 08:53:01;;;;;;;11.43;2.10;;;;;;;;;;5063419;28;43765;-68
2023/07/05 08:55:43;;;;;;;7.00;1.90;;;;;;;;;;5063335;28;39513;-67
2023/07/05 08:58:11;;;;;;;4.82;2.20;;;;;;;;;;5059420;28;41606;-69
2023/07/05 09:00:41;;;;;;;5.47;1.52;;;;;;;;;;5065517;28;43074;-70
2023/07/05 09:03:10;;;;;;;5.78;1.80;;;;;;;;;;5060059;28;41219;-69
2023/07/05 09:05:40;;;;;;;5.63;1.92;;;;;;;;;;5064510;28;42122;-67
2023/07/05 09:08:11;;;;;;;5.88;1.77;;;;;;;;;;5064970;28;41391;-68
2023/07/05 09:10:41;;;;;;;6.18;1.85;;;;;;;;;;5062926;28;43186;-68
2023/07/05 09:13:12;;;;;;;4.07;2.25;;;;;;;;;;5066251;28;41884;-68
2023/07/05 09:15:42;;;;;;;2.95;1.67;;;;;;;;;;5060791;28;41932;-68
2023/07/05 09:18:13;;;;;;;4.93;1.90;;;;;;;;;;5060108;28;42624;-69
2023/07/05 09:20:49;;;;;;;6.47;1.77;;;;;;;;;;5063323;28;44164;-67
2023/07/05 09:23:18;;;;;;;4.47;2.22;;;;;;;;;;5057627;28;41003;-66
2023/07/05 09:25:48;;;;;;;5.70;2.13;;;;;;;;;;5051249;28;41765;-66
2023/07/05 09:28:24;;;;;;;6.38;1.63;;;;;;;;;;5047216;28;41379;-67
2023/07/05 09:30:52;;;;;;;4.30;1.80;;;;;;;;;;5061118;28;42565;-68
2023/07/05 09:33:21;;;;;;;11.57;2.20;;;;;;;;;;5071591;28;42022;-67
2023/07/05 09:35:49;;;;;;;15.02;2.00;;;;;;;;;;5067455;28;40478;-66
2023/07/05 09:38:20;;;;;;;8.98;1.67;;;;;;;;;;5065356;28;42086;-66
2023/07/05 09:40:50;;;;;;;9.85;1.95;;;;;;;;;;5064892;28;42014;-68
2023/07/05 09:43:21;;;;;;;6.05;2.08;;;;;;;;;;5065871;28;40344;-68
2023/07/05 09:45:48;;;;;;;6.60;1.40;;;;;;;;;;5065530;28;41469;-69
2023/07/05 09:48:17;;;;;;;4.93;1.50;;;;;;;;;;5067287;28;32562;-69
2023/07/05 09:50:46;;;;;;;2.20;1.48;;;;;;;;;;5065023;28;42019;-69
2023/07/05 09:53:18;;;;;;;10.90;2.08;;;;;;;;;;5067336;28;42324;-69
2023/07/05 09:56:04;;;;;;;6.05;1.60;;;;;;;;;;5065110;28;40784;-70
2023/07/05 09:58:32;;;;;;;5.18;1.88;;;;;;;;;;5044616;28;41393;-65
2023/07/05 10:01:02;;;;;;;5.72;1.50;;;;;;;;;;5057476;28;42241;-70
2023/07/05 10:03:33;;;;;;;5.50;1.40;;;;;;;;;;5060037;28;40046;-68
2023/07/05 10:06:07;;;;;;;10.93;1.65;;;;;;;;;;5064476;28;42323;-69
2023/07/05 10:08:53;;;;;;;7.97;1.70;;;;;;;;;;5059816;28;43113;-66
2023/07/05 10:11:23;;;;;;;9.70;1.95;;;;;;;;;;5056652;28;41558;-67
2023/07/05 10:14:12;;;;;;;10.02;1.42;;;;;;;;;;5058146;28;43174;-67
2023/07/05 10:16:44;;;;;;;9.68;1.77;;;;;;;;;;5062227;28;41290;-68
2023/07/05 10:19:29;;;;;;;8.18;1.60;;;;;;;;;;5062546;28;41645;-69
2023/07/05 10:22:06;;;;;;;10.13;1.98;;;;;;;;;;5052181;28;42310;-68
2023/07/05 10:24:36;;;;;;;6.22;1.52;;;;;;;;;;5065147;28;40679;-72
2023/07/05 10:27:08;;;;;;;9.18;2.05;;;;;;;;;;5063779;28;41790;-71
2023/07/05 10:29:36;;;;;;;9.00;2.03;;;;;;;;;;5064375;28;41094;-69
2023/07/05 10:32:05;;;;;;;8.68;2.13;;;;;;;;;;5069023;28;40241;-68
2023/07/05 10:34:33;;;;;;;7.97;1.70;;;;;;;;;;5061545;28;42184;-67
2023/07/05 10:37:03;;;;;;;10.82;2.60;;;;;;;;;;5068041;28;40477;-67
2023/07/05 10:39:31;;;;;;;9.38;1.90;;;;;;;;;;5064011;28;42227;-71
2023/07/05 10:41:59;;;;;;;6.60;1.83;;;;;;;;;;5068237;28;42254;-68
2023/07/05 10:44:30;;;;;;;6.00;1.83;;;;;;;;;;5062489;28;40098;-69
2023/07/05 10:46:58;;;;;;;10.57;1.70;;;;;;;;;;5063670;28;41650;-71
2023/07/05 10:49:27;;;;;;;9.80;1.60;;;;;;;;;;5064889;28;40740;-68
2023/07/05 10:51:56;;;;;;;6.97;1.80;;;;;;;;;;5064359;28;40254;-68
2023/07/05 10:54:27;;;;;;;7.43;2.08;;;;;;;;;;5099495;28;41887;-68
2023/07/05 10:56:55;;;;;;;7.55;1.60;;;;;;;;;;5066515;28;42611;-69
2023/07/05 10:59:26;;;;;;;3.80;1.75;;;;;;;;;;5066684;28;41588;-69
2023/07/05 11:01:59;;;;;;;8.07;1.95;;;;;;;;;;5063183;28;42913;-69
2023/07/05 11:04:28;;;;;;;6.75;1.65;;;;;;;;;;5066944;28;40238;-68
2023/07/05 11:07:00;;;;;;;4.72;1.67;;;;;;;;;;5066357;28;41674;-68
2023/07/05 11:09:31;;;;;;;4.97;1.95;;;;;;;;;;5063094;28;42107;-68
2023/07/05 11:11:59;;;;;;;15.13;2.08;;;;;;;;;;5067323;28;40907;-68
2023/07/05 11:14:28;;;;;;;3.53;1.48;;;;;;;;;;5066028;28;41688;-68
2023/07/05 11:16:57;;;;;;;8.15;1.73;;;;;;;;;;5067199;28;43115;-69
2023/07/05 11:19:26;;;;;;;3.80;1.73;;;;;;;;;;5064500;28;41539;-68
2023/07/05 11:21:54;;;;;;;13.20;2.00;;;;;;;;;;5063611;28;43168;-72
2023/07/05 11:24:42;;;;;;;4.47;1.90;;;;;;;;;;5066086;28;40263;-72
2023/07/05 11:27:29;;;;;;;4.53;2.28;;;;;;;;;;5065824;28;41578;-73
2023/07/05 11:29:58;;;;;;;6.85;2.05;;;;;;;;;;5066169;28;42080;-71
2023/07/05 11:32:27;;;;;;;6.40;1.67;;;;;;;;;;5067108;28;40537;-74
2023/07/05 11:34:56;;;;;;;6.15;1.88;;;;;;;;;;5066841;28;43082;-74
2023/07/05 11:37:48;;;;;;;11.68;2.08;;;;;;;;;;5065939;28;41865;-74
2023/07/05 11:40:35;;;;;;;8.52;1.77;;;;;;;;;;5062574;28;40239;-78
2023/07/05 11:43:17;;;;;;;5.20;1.58;;;;;;;;;;5063030;28;41567;-75
2023/07/05 11:45:45;;;;;;;11.55;2.80;;;;;;;;;;5065626;28;40230;-68
2023/07/05 11:48:28;;;;;;;24.13;2.55;;;;;;;;;;5066129;28;41568;-73
2023/07/05 11:50:58;;;;;;;11.77;2.10;;;;;;;;;;5066324;28;43102;-72
2023/07/05 11:53:27;;;;;;;13.90;2.58;;;;;;;;;;5065592;28;41444;-72
2023/07/05 11:55:54;;;;;;;12.38;2.53;;;;;;;;;;5066632;28;42624;-68
2023/07/05 11:58:23;;;;;;;8.18;2.08;;;;;;;;;;5064427;28;41690;-69
2023/07/05 12:00:51;;;;;;;18.35;2.95;;;;;;;;;;5100015;27;38971;-69
2023/07/05 12:03:20;;;;;;;12.05;2.30;;;;;;;;;;5066703;28;43066;-70
2023/07/05 12:05:54;;;;;;;14.02;2.78;;;;;;;;;;5065683;28;40576;-68
2023/07/05 12:08:25;;;;;;;11.35;2.60;;;;;;;;;;5067143;28;41716;-70
2023/07/05 12:10:54;;;;;;;11.65;2.20;;;;;;;;;;5061769;28;42165;-68
2023/07/05 12:13:23;;;;;;;8.73;2.45;;;;;;;;;;5065533;28;39328;-68
2023/07/05 12:15:52;;;;;;;10.02;2.20;;;;;;;;;;5060147;28;39776;-68
2023/07/05 12:18:21;;;;;;;11.60;2.22;;;;;;;;;;5065636;28;43678;-72
2023/07/05 12:20:49;;;;;;;13.88;1.90;;;;;;;;;;5060084;28;41443;-71
2023/07/05 12:23:17;;;;;;;5.95;1.95;;;;;;;;;;5062385;28;41474;-67
2023/07/05 12:25:49;;;;;;;9.07;2.30;;;;;;;;;;5063255;28;41194;-65
2023/07/05 12:28:19;;;;;;;7.95;2.08;;;;;;;;;;5066382;28;42785;-66
2023/07/05 12:30:47;;;;;;;10.50;2.30;;;;;;;;;;5064262;28;42023;-65
2023/07/05 12:33:22;;;;;;;7.68;2.20;;;;;;;;;;5064883;28;40326;-65
2023/07/05 12:36:06;;;;;;;5.95;1.83;;;;;;;;;;5063556;28;41570;-66
2023/07/05 12:38:35;;;;;;;12.07;2.20;;;;;;;;;;5068090;28;42276;-68
2023/07/05 12:41:07;;;;;;;6.13;1.80;;;;;;;;;;5062340;28;40292;-68
2023/07/05 12:43:35;;;;;;;5.32;1.88;;;;;;;;;;5062986;28;41750;-72
2023/07/05 12:46:06;;;;;;;4.90;1.90;;;;;;;;;;5066475;28;43059;-69
2023/07/05 12:48:34;;;;;;;6.53;1.80;;;;;;;;;;5061167;28;42542;-71
2023/07/05 12:51:02;;;;;;;11.35;1.98;;;;;;;;;;5065833;28;43112;-69
2023/07/05 12:53:30;;;;;;;3.88;2.03;;;;;;;;;;5064577;28;40554;-69
2023/07/05 12:55:59;;;;;;;5.80;1.70;;;;;;;;;;5064604;28;42405;-70
2023/07/05 12:58:28;;;;;;;3.03;1.42;;;;;;;;;;5065158;28;42698;-71
2023/07/05 13:00:57;;;;;;;4.78;1.70;;;;;;;;;;5060984;28;39988;-68
2023/07/05 13:03:26;;;;;;;3.58;1.70;;;;;;;;;;5065608;28;41476;-67
2023/07/05 13:05:54;;;;;;;5.35;1.80;;;;;;;;;;5072011;28;42101;-66
2023/07/05 13:08:22;;;;;;;3.47;1.70;;;;;;;;;;5071009;28;41312;-65
2023/07/05 13:10:51;;;;;;;6.03;1.63;;;;;;;;;;5063322;28;42307;-65
2023/07/05 13:13:22;;;;;;;7.85;1.73;;;;;;;;;;5065803;28;41283;-65
2023/07/05 13:15:51;;;;;;;4.70;1.77;;;;;;;;;;5063755;28;42453;-65
2023/07/05 13:18:37;;;;;;;5.60;1.80;;;;;;;;;;5064651;28;41274;-65
2023/07/05 13:21:12;;;;;;;4.00;1.92;;;;;;;;;;5061337;28;40098;-65
2023/07/05 13:23:43;;;;;;;7.78;1.83;;;;;;;;;;5061568;28;41309;-65
2023/07/05 13:26:18;;;;;;;3.15;1.85;;;;;;;;;;5064815;28;42793;-66
2023/07/05 13:28:46;;;;;;;4.60;1.48;;;;;;;;;;5061107;28;41072;-65
2023/07/05 13:31:20;;;;;;;8.52;2.10;;;;;;;;;;5065947;28;41064;-65
2023/07/05 13:33:48;;;;;;;6.05;1.70;;;;;;;;;;5063098;28;41157;-65
2023/07/05 13:36:17;;;;;;;8.40;2.33;;;;;;;;;;5064565;28;42267;-66
2023/07/05 13:38:45;;;;;;;3.95;1.80;;;;;;;;;;5063667;28;42401;-66
2023/07/05 13:41:14;;;;;;;5.35;1.92;;;;;;;;;;5065627;28;40639;-67
2023/07/05 13:43:42;;;;;;;9.10;1.90;;;;;;;;;;5067166;28;40958;-67
2023/07/05 13:46:10;;;;;;;4.90;2.17;;;;;;;;;;5068138;28;42183;-66
2023/07/05 13:48:39;;;;;;;7.10;2.25;;;;;;;;;;5068151;28;40378;-68
2023/07/05 13:51:09;;;;;;;6.63;2.03;;;;;;;;;;5099692;27;41355;-66
2023/07/05 13:53:37;;;;;;;7.13;1.80;;;;;;;;;;5068165;28;43081;-66
2023/07/05 13:56:05;;;;;;;7.20;2.13;;;;;;;;;;5066111;28;42618;-67
2023/07/05 13:58:33;;;;;;;3.25;1.58;;;;;;;;;;5068310;28;41677;-66
2023/07/05 14:01:01;;;;;;;4.05;1.73;;;;;;;;;;5062639;28;41393;-67
2023/07/05 14:03:30;;;;;;;6.40;1.75;;;;;;;;;;5068649;28;41535;-67
2023/07/05 14:06:19;;;;;;;7.65;1.90;;;;;;;;;;5058420;28;42146;-67
2023/07/05 14:08:47;;;;;;;6.82;1.88;;;;;;;;;;5067326;28;41317;-65
2023/07/05 14:11:16;;;;;;;9.60;2.28;;;;;;;;;;5065479;28;42235;-68
2023/07/05 14:13:44;;;;;;;7.65;1.83;;;;;;;;;;5065062;28;42994;-67
2023/07/05 14:16:13;;;;;;;5.00;1.75;;;;;;;;;;5070756;28;42611;-69
2023/07/05 14:18:41;;;;;;;10.88;2.17;;;;;;;;;;5073461;22;43246;-64
2023/07/05 14:21:20;;;;;;;8.77;2.00;;;;;;;;;;5036919;28;38984;-66
2023/07/05 14:23:48;;;;;;;10.38;2.30;;;;;;;;;;5036460;28;41585;-65
2023/07/05 14:26:16;;;;;;;4.38;2.03;;;;;;;;;;5037164;28;42262;-65
2023/07/05 14:28:44;;;;;;;5.28;1.80;;;;;;;;;;5039178;28;40360;-68
2023/07/05 14:31:12;;;;;;;13.50;2.17;;;;;;;;;;5037442;28;41898;-66
2023/07/05 14:33:41;;;;;;;8.75;1.90;;;;;;;;;;4998205;28;42224;-66
2023/07/05 14:36:09;;;;;;;6.47;2.00;;;;;;;;;;5008068;28;39926;-65
2023/07/05 14:38:40;;;;;;;5.65;1.85;;;;;;;;;;5005343;28;44522;-64
2023/07/05 14:41:10;;;;;;;6.78;2.17;;;;;;;;;;5006943;28;39430;-73
2023/07/05 14:43:42;;;;;;;8.65;1.63;;;;;;;;;;5016471;28;43572;-72
2023/07/05 14:46:10;;;;;;;6.35;1.70;;;;;;;;;;5011542;28;43325;-72
2023/07/05 14:48:38;;;;;;;5.53;2.03;;;;;;;;;;5003469;28;41541;-72
2023/07/05 14:51:07;;;;;;;7.43;1.88;;;;;;;;;;5008939;28;41839;-72
2023/07/05 14:53:35;;;;;;;8.15;2.03;;;;;;;;;;5006048;28;42388;-72
2023/07/05 14:56:05;;;;;;;5.05;1.67;;;;;;;;;;5003878;28;41307;-72